sensor_id;sensor_type;location;lat;lon;timestamp;P1;durP1;ratioP1;P2;durP2;ratioP2
31770;SDS011;18343;50.152;8.182;2024-02-15T00:00:25;21.02;;;12.07;;
31770;SDS011;18343;50.152;8.182;2024-02-15T00:03:11;20.38;;;11.50;;
31770;SDS011;18343;50.152;8.182;2024-02-15T00:05:56;20.77;;;11.35;;
31770;SDS011;18343;50.152;8.182;2024-02-15T00:08:43;17.33;;;9.82;;
31770;SDS011;18343;50.152;8.182;2024-02-15T00:11:28;17.88;;;11.38;;
31770;SDS011;18343;50.152;8.182;2024-02-15T00:14:12;21.08;;;11.48;;
31770;SDS011;18343;50.152;8.182;2024-02-15T00:16:57;19.38;;;11.13;;
31770;SDS011;18343;50.152;8.182;2024-02-15T00:19:43;22.02;;;11.35;;
31770;SDS011;18343;50.152;8.182;2024-02-15T00:22:27;24.40;;;12.43;;
31770;SDS011;18343;50.152;8.182;2024-02-15T00:25:12;19.38;;;11.38;;
31770;SDS011;18343;50.152;8.182;2024-02-15T00:27:56;19.83;;;11.45;;
31770;SDS011;18343;50.152;8.182;2024-02-15T00:30:41;20.85;;;11.60;;
31770;SDS011;18343;50.152;8.182;2024-02-15T00:33:25;21.52;;;11.32;;
31770;SDS011;18343;50.152;8.182;2024-02-15T00:36:11;21.30;;;12.05;;
31770;SDS011;18343;50.152;8.182;2024-02-15T00:38:56;18.20;;;11.55;;
31770;SDS011;18343;50.152;8.182;2024-02-15T00:41:42;21.27;;;12.43;;
31770;SDS011;18343;50.152;8.182;2024-02-15T00:44:26;26.38;;;12.45;;
31770;SDS011;18343;50.152;8.182;2024-02-15T00:47:11;24.90;;;13.07;;
31770;SDS011;18343;50.152;8.182;2024-02-15T00:49:55;21.17;;;11.90;;
31770;SDS011;18343;50.152;8.182;2024-02-15T00:52:41;25.88;;;11.85;;
31770;SDS011;18343;50.152;8.182;2024-02-15T00:55:26;22.85;;;12.40;;
31770;SDS011;18343;50.152;8.182;2024-02-15T00:58:10;17.35;;;11.35;;
31770;SDS011;18343;50.152;8.182;2024-02-15T01:00:55;19.35;;;11.82;;
31770;SDS011;18343;50.152;8.182;2024-02-15T01:03:41;22.20;;;10.40;;
31770;SDS011;18343;50.152;8.182;2024-02-15T01:06:25;20.30;;;11.05;;
31770;SDS011;18343;50.152;8.182;2024-02-15T01:09:11;19.50;;;9.88;;
31770;SDS011;18343;50.152;8.182;2024-02-15T01:11:56;25.80;;;10.65;;
31770;SDS011;18343;50.152;8.182;2024-02-15T01:14:40;23.48;;;11.15;;
31770;SDS011;18343;50.152;8.182;2024-02-15T01:17:25;19.38;;;9.30;;
31770;SDS011;18343;50.152;8.182;2024-02-15T01:20:10;20.60;;;11.82;;
31770;SDS011;18343;50.152;8.182;2024-02-15T01:22:55;20.83;;;11.43;;
31770;SDS011;18343;50.152;8.182;2024-02-15T01:25:41;21.00;;;11.43;;
31770;SDS011;18343;50.152;8.182;2024-02-15T01:28:26;22.88;;;12.32;;
31770;SDS011;18343;50.152;8.182;2024-02-15T01:31:10;32.53;;;13.07;;
31770;SDS011;18343;50.152;8.182;2024-02-15T01:33:55;21.35;;;12.13;;
31770;SDS011;18343;50.152;8.182;2024-02-15T01:36:39;32.42;;;12.77;;
31770;SDS011;18343;50.152;8.182;2024-02-15T01:39:24;21.65;;;12.57;;
31770;SDS011;18343;50.152;8.182;2024-02-15T01:42:10;21.95;;;11.48;;
31770;SDS011;18343;50.152;8.182;2024-02-15T01:44:54;24.77;;;12.50;;
31770;SDS011;18343;50.152;8.182;2024-02-15T01:47:39;20.77;;;12.15;;
31770;SDS011;18343;50.152;8.182;2024-02-15T01:50:24;20.13;;;11.88;;
31770;SDS011;18343;50.152;8.182;2024-02-15T01:53:09;19.88;;;11.95;;
31770;SDS011;18343;50.152;8.182;2024-02-15T01:55:55;24.23;;;10.77;;
31770;SDS011;18343;50.152;8.182;2024-02-15T01:58:43;18.67;;;10.70;;
31770;SDS011;18343;50.152;8.182;2024-02-15T02:01:29;24.05;;;12.02;;
31770;SDS011;18343;50.152;8.182;2024-02-15T02:04:14;18.55;;;10.63;;
31770;SDS011;18343;50.152;8.182;2024-02-15T02:06:59;25.92;;;10.50;;
31770;SDS011;18343;50.152;8.182;2024-02-15T02:09:45;16.67;;;10.40;;
31770;SDS011;18343;50.152;8.182;2024-02-15T02:12:30;18.50;;;10.18;;
31770;SDS011;18343;50.152;8.182;2024-02-15T02:15:17;15.80;;;9.77;;
31770;SDS011;18343;50.152;8.182;2024-02-15T02:18:01;21.75;;;10.50;;
31770;SDS011;18343;50.152;8.182;2024-02-15T02:20:47;16.75;;;9.68;;
31770;SDS011;18343;50.152;8.182;2024-02-15T02:23:32;17.70;;;10.13;;
31770;SDS011;18343;50.152;8.182;2024-02-15T02:29:26;21.98;;;10.45;;
31770;SDS011;18343;50.152;8.182;2024-02-15T02:32:11;19.13;;;9.93;;
31770;SDS011;18343;50.152;8.182;2024-02-15T02:34:56;25.20;;;11.02;;
31770;SDS011;18343;50.152;8.182;2024-02-15T02:37:40;25.42;;;10.85;;
31770;SDS011;18343;50.152;8.182;2024-02-15T02:40:26;17.35;;;9.90;;
31770;SDS011;18343;50.152;8.182;2024-02-15T02:43:12;18.70;;;10.82;;
31770;SDS011;18343;50.152;8.182;2024-02-15T02:45:56;25.40;;;9.85;;
31770;SDS011;18343;50.152;8.182;2024-02-15T02:48:41;20.25;;;10.15;;
31770;SDS011;18343;50.152;8.182;2024-02-15T02:51:25;17.02;;;9.40;;
31770;SDS011;18343;50.152;8.182;2024-02-15T02:54:10;19.20;;;10.13;;
31770;SDS011;18343;50.152;8.182;2024-02-15T02:56:54;16.58;;;8.32;;
31770;SDS011;18343;50.152;8.182;2024-02-15T02:59:40;23.83;;;8.68;;
31770;SDS011;18343;50.152;8.182;2024-02-15T03:02:25;13.95;;;7.25;;
31770;SDS011;18343;50.152;8.182;2024-02-15T03:05:10;17.05;;;7.72;;
31770;SDS011;18343;50.152;8.182;2024-02-15T03:07:55;16.92;;;7.32;;
31770;SDS011;18343;50.152;8.182;2024-02-15T03:10:39;14.48;;;6.93;;
31770;SDS011;18343;50.152;8.182;2024-02-15T03:13:24;16.13;;;8.73;;
31770;SDS011;18343;50.152;8.182;2024-02-15T03:16:10;29.10;;;13.77;;
31770;SDS011;18343;50.152;8.182;2024-02-15T03:18:55;26.65;;;13.95;;
31770;SDS011;18343;50.152;8.182;2024-02-15T03:21:39;30.48;;;15.38;;
31770;SDS011;18343;50.152;8.182;2024-02-15T03:24:24;32.47;;;15.05;;
31770;SDS011;18343;50.152;8.182;2024-02-15T03:27:09;31.52;;;14.75;;
31770;SDS011;18343;50.152;8.182;2024-02-15T03:29:53;33.05;;;14.38;;
31770;SDS011;18343;50.152;8.182;2024-02-15T03:35:44;29.55;;;12.63;;
31770;SDS011;18343;50.152;8.182;2024-02-15T03:38:29;33.35;;;13.38;;
31770;SDS011;18343;50.152;8.182;2024-02-15T03:41:13;27.67;;;12.52;;
31770;SDS011;18343;50.152;8.182;2024-02-15T03:43:58;22.27;;;13.05;;
31770;SDS011;18343;50.152;8.182;2024-02-15T03:46:42;27.33;;;12.35;;
31770;SDS011;18343;50.152;8.182;2024-02-15T03:49:28;27.13;;;11.40;;
31770;SDS011;18343;50.152;8.182;2024-02-15T03:52:13;27.30;;;12.32;;
31770;SDS011;18343;50.152;8.182;2024-02-15T03:54:57;28.38;;;12.55;;
31770;SDS011;18343;50.152;8.182;2024-02-15T03:57:42;24.00;;;12.57;;
31770;SDS011;18343;50.152;8.182;2024-02-15T04:00:27;21.27;;;12.05;;
31770;SDS011;18343;50.152;8.182;2024-02-15T04:03:12;22.13;;;11.82;;
31770;SDS011;18343;50.152;8.182;2024-02-15T04:05:57;30.25;;;12.73;;
31770;SDS011;18343;50.152;8.182;2024-02-15T04:08:42;29.25;;;13.43;;
31770;SDS011;18343;50.152;8.182;2024-02-15T04:11:27;25.80;;;12.38;;
31770;SDS011;18343;50.152;8.182;2024-02-15T04:14:12;27.52;;;12.85;;
31770;SDS011;18343;50.152;8.182;2024-02-15T04:16:57;26.60;;;13.25;;
31770;SDS011;18343;50.152;8.182;2024-02-15T04:19:41;26.95;;;13.73;;
31770;SDS011;18343;50.152;8.182;2024-02-15T04:22:29;27.30;;;12.23;;
31770;SDS011;18343;50.152;8.182;2024-02-15T04:25:13;22.10;;;11.40;;
31770;SDS011;18343;50.152;8.182;2024-02-15T04:27:58;27.65;;;11.75;;
31770;SDS011;18343;50.152;8.182;2024-02-15T04:30:42;24.88;;;12.52;;
31770;SDS011;18343;50.152;8.182;2024-02-15T04:33:27;30.20;;;12.43;;
31770;SDS011;18343;50.152;8.182;2024-02-15T04:36:12;32.78;;;12.90;;
31770;SDS011;18343;50.152;8.182;2024-02-15T04:38:58;23.83;;;12.10;;
31770;SDS011;18343;50.152;8.182;2024-02-15T04:41:42;28.90;;;12.52;;
31770;SDS011;18343;50.152;8.182;2024-02-15T04:44:27;24.00;;;12.80;;
31770;SDS011;18343;50.152;8.182;2024-02-15T04:47:12;26.33;;;13.52;;
31770;SDS011;18343;50.152;8.182;2024-02-15T04:49:56;28.60;;;13.05;;
31770;SDS011;18343;50.152;8.182;2024-02-15T04:52:40;27.33;;;13.85;;
31770;SDS011;18343;50.152;8.182;2024-02-15T04:55:26;29.05;;;13.88;;
31770;SDS011;18343;50.152;8.182;2024-02-15T04:58:11;27.48;;;12.10;;
31770;SDS011;18343;50.152;8.182;2024-02-15T05:00:56;28.83;;;12.40;;
31770;SDS011;18343;50.152;8.182;2024-02-15T05:03:40;27.58;;;12.63;;
31770;SDS011;18343;50.152;8.182;2024-02-15T05:06:25;22.27;;;12.73;;
31770;SDS011;18343;50.152;8.182;2024-02-15T05:09:10;32.92;;;13.27;;
31770;SDS011;18343;50.152;8.182;2024-02-15T05:11:56;24.02;;;12.27;;
31770;SDS011;18343;50.152;8.182;2024-02-15T05:14:43;28.60;;;13.00;;
31770;SDS011;18343;50.152;8.182;2024-02-15T05:17:28;26.98;;;12.60;;
31770;SDS011;18343;50.152;8.182;2024-02-15T05:20:12;26.70;;;12.57;;
31770;SDS011;18343;50.152;8.182;2024-02-15T05:22:57;24.77;;;13.07;;
31770;SDS011;18343;50.152;8.182;2024-02-15T05:25:41;25.52;;;12.90;;
31770;SDS011;18343;50.152;8.182;2024-02-15T05:28:27;26.25;;;14.23;;
31770;SDS011;18343;50.152;8.182;2024-02-15T05:31:12;31.17;;;14.70;;
31770;SDS011;18343;50.152;8.182;2024-02-15T05:33:57;34.13;;;17.50;;
31770;SDS011;18343;50.152;8.182;2024-02-15T05:36:41;40.00;;;16.80;;
31770;SDS011;18343;50.152;8.182;2024-02-15T05:39:26;35.38;;;17.58;;
31770;SDS011;18343;50.152;8.182;2024-02-15T05:42:10;36.92;;;16.38;;
31770;SDS011;18343;50.152;8.182;2024-02-15T05:44:56;33.58;;;17.50;;
31770;SDS011;18343;50.152;8.182;2024-02-15T05:47:59;31.30;;;16.25;;
31770;SDS011;18343;50.152;8.182;2024-02-15T05:50:58;30.15;;;15.23;;
31770;SDS011;18343;50.152;8.182;2024-02-15T05:53:49;28.05;;;14.13;;
31770;SDS011;18343;50.152;8.182;2024-02-15T05:56:33;29.42;;;13.88;;
31770;SDS011;18343;50.152;8.182;2024-02-15T05:59:19;29.45;;;14.60;;
31770;SDS011;18343;50.152;8.182;2024-02-15T06:02:05;28.23;;;15.68;;
31770;SDS011;18343;50.152;8.182;2024-02-15T06:04:49;26.33;;;15.52;;
31770;SDS011;18343;50.152;8.182;2024-02-15T06:07:34;27.67;;;13.93;;
31770;SDS011;18343;50.152;8.182;2024-02-15T06:10:19;29.08;;;14.50;;
31770;SDS011;18343;50.152;8.182;2024-02-15T06:13:03;27.60;;;15.15;;
31770;SDS011;18343;50.152;8.182;2024-02-15T06:15:48;29.55;;;16.05;;
31770;SDS011;18343;50.152;8.182;2024-02-15T06:18:34;25.65;;;15.65;;
31770;SDS011;18343;50.152;8.182;2024-02-15T06:21:19;28.98;;;15.25;;
31770;SDS011;18343;50.152;8.182;2024-02-15T06:24:04;24.90;;;16.05;;
31770;SDS011;18343;50.152;8.182;2024-02-15T06:26:48;33.20;;;16.08;;
31770;SDS011;18343;50.152;8.182;2024-02-15T06:29:35;25.45;;;14.30;;
31770;SDS011;18343;50.152;8.182;2024-02-15T06:32:20;31.27;;;15.07;;
31770;SDS011;18343;50.152;8.182;2024-02-15T06:35:06;29.17;;;15.52;;
31770;SDS011;18343;50.152;8.182;2024-02-15T06:37:52;25.85;;;15.98;;
31770;SDS011;18343;50.152;8.182;2024-02-15T06:40:37;31.58;;;16.50;;
31770;SDS011;18343;50.152;8.182;2024-02-15T06:43:23;29.88;;;16.73;;
31770;SDS011;18343;50.152;8.182;2024-02-15T06:46:08;28.60;;;15.73;;
31770;SDS011;18343;50.152;8.182;2024-02-15T06:48:53;31.45;;;16.55;;
31770;SDS011;18343;50.152;8.182;2024-02-15T06:51:39;36.55;;;17.35;;
31770;SDS011;18343;50.152;8.182;2024-02-15T06:54:38;36.83;;;18.08;;
31770;SDS011;18343;50.152;8.182;2024-02-15T06:57:24;38.33;;;18.42;;
31770;SDS011;18343;50.152;8.182;2024-02-15T07:00:09;37.50;;;19.17;;
31770;SDS011;18343;50.152;8.182;2024-02-15T07:02:55;35.33;;;18.58;;
31770;SDS011;18343;50.152;8.182;2024-02-15T07:05:39;36.30;;;19.35;;
31770;SDS011;18343;50.152;8.182;2024-02-15T07:08:28;36.10;;;19.77;;
31770;SDS011;18343;50.152;8.182;2024-02-15T07:11:13;34.00;;;20.02;;
31770;SDS011;18343;50.152;8.182;2024-02-15T07:13:57;35.60;;;20.45;;
31770;SDS011;18343;50.152;8.182;2024-02-15T07:16:44;38.00;;;19.45;;
31770;SDS011;18343;50.152;8.182;2024-02-15T07:19:32;42.05;;;20.48;;
31770;SDS011;18343;50.152;8.182;2024-02-15T07:22:17;40.30;;;20.83;;
31770;SDS011;18343;50.152;8.182;2024-02-15T07:25:03;35.58;;;19.35;;
31770;SDS011;18343;50.152;8.182;2024-02-15T07:27:49;40.53;;;19.70;;
31770;SDS011;18343;50.152;8.182;2024-02-15T07:30:33;35.60;;;19.80;;
31770;SDS011;18343;50.152;8.182;2024-02-15T07:33:18;39.63;;;19.90;;
31770;SDS011;18343;50.152;8.182;2024-02-15T07:36:03;36.35;;;19.92;;
31770;SDS011;18343;50.152;8.182;2024-02-15T07:38:48;37.63;;;20.20;;
31770;SDS011;18343;50.152;8.182;2024-02-15T07:41:34;40.45;;;20.17;;
31770;SDS011;18343;50.152;8.182;2024-02-15T07:44:20;39.85;;;18.90;;
31770;SDS011;18343;50.152;8.182;2024-02-15T07:47:06;40.13;;;20.23;;
31770;SDS011;18343;50.152;8.182;2024-02-15T07:49:51;37.33;;;18.98;;
31770;SDS011;18343;50.152;8.182;2024-02-15T07:52:36;34.83;;;18.25;;
31770;SDS011;18343;50.152;8.182;2024-02-15T07:55:20;34.75;;;18.48;;
31770;SDS011;18343;50.152;8.182;2024-02-15T07:58:09;40.00;;;20.25;;
31770;SDS011;18343;50.152;8.182;2024-02-15T08:00:54;41.50;;;19.33;;
31770;SDS011;18343;50.152;8.182;2024-02-15T08:03:38;40.75;;;20.38;;
31770;SDS011;18343;50.152;8.182;2024-02-15T08:06:23;37.67;;;18.90;;
31770;SDS011;18343;50.152;8.182;2024-02-15T08:09:07;34.90;;;18.55;;
31770;SDS011;18343;50.152;8.182;2024-02-15T08:11:52;33.42;;;18.33;;
31770;SDS011;18343;50.152;8.182;2024-02-15T08:14:38;40.28;;;18.38;;
31770;SDS011;18343;50.152;8.182;2024-02-15T08:17:22;34.15;;;18.00;;
31770;SDS011;18343;50.152;8.182;2024-02-15T08:20:07;35.67;;;18.38;;
31770;SDS011;18343;50.152;8.182;2024-02-15T08:22:54;35.17;;;18.30;;
31770;SDS011;18343;50.152;8.182;2024-02-15T08:25:41;28.25;;;15.70;;
31770;SDS011;18343;50.152;8.182;2024-02-15T08:28:25;29.20;;;15.15;;
31770;SDS011;18343;50.152;8.182;2024-02-15T08:31:11;29.50;;;15.15;;
31770;SDS011;18343;50.152;8.182;2024-02-15T08:33:56;26.70;;;15.35;;
31770;SDS011;18343;50.152;8.182;2024-02-15T08:36:41;28.90;;;14.85;;
31770;SDS011;18343;50.152;8.182;2024-02-15T08:39:25;31.95;;;14.57;;
31770;SDS011;18343;50.152;8.182;2024-02-15T08:42:09;24.98;;;13.38;;
31770;SDS011;18343;50.152;8.182;2024-02-15T08:44:54;25.73;;;13.93;;
31770;SDS011;18343;50.152;8.182;2024-02-15T08:47:40;17.77;;;11.60;;
31770;SDS011;18343;50.152;8.182;2024-02-15T08:50:26;26.98;;;13.40;;
31770;SDS011;18343;50.152;8.182;2024-02-15T08:53:11;22.70;;;12.27;;
31770;SDS011;18343;50.152;8.182;2024-02-15T08:55:56;29.95;;;16.13;;
31770;SDS011;18343;50.152;8.182;2024-02-15T08:58:40;25.35;;;15.75;;
31770;SDS011;18343;50.152;8.182;2024-02-15T09:01:25;29.73;;;15.57;;
31770;SDS011;18343;50.152;8.182;2024-02-15T09:04:11;33.90;;;16.15;;
31770;SDS011;18343;50.152;8.182;2024-02-15T09:06:55;29.42;;;16.08;;
31770;SDS011;18343;50.152;8.182;2024-02-15T09:09:40;25.90;;;14.95;;
31770;SDS011;18343;50.152;8.182;2024-02-15T09:12:25;31.27;;;15.48;;
31770;SDS011;18343;50.152;8.182;2024-02-15T09:15:12;26.48;;;15.05;;
31770;SDS011;18343;50.152;8.182;2024-02-15T09:17:57;28.80;;;15.50;;
31770;SDS011;18343;50.152;8.182;2024-02-15T09:20:47;25.67;;;15.20;;
31770;SDS011;18343;50.152;8.182;2024-02-15T09:23:32;23.45;;;13.82;;
31770;SDS011;18343;50.152;8.182;2024-02-15T09:26:19;22.65;;;13.48;;
31770;SDS011;18343;50.152;8.182;2024-02-15T09:29:04;22.23;;;14.02;;
31770;SDS011;18343;50.152;8.182;2024-02-15T09:31:48;18.25;;;12.63;;
31770;SDS011;18343;50.152;8.182;2024-02-15T09:34:33;25.00;;;12.88;;
31770;SDS011;18343;50.152;8.182;2024-02-15T09:37:19;23.15;;;12.85;;
31770;SDS011;18343;50.152;8.182;2024-02-15T09:40:04;20.95;;;12.82;;
31770;SDS011;18343;50.152;8.182;2024-02-15T09:42:52;21.58;;;12.60;;
31770;SDS011;18343;50.152;8.182;2024-02-15T09:45:36;19.98;;;12.30;;
31770;SDS011;18343;50.152;8.182;2024-02-15T09:48:22;22.20;;;12.80;;
31770;SDS011;18343;50.152;8.182;2024-02-15T09:51:09;18.67;;;13.27;;
31770;SDS011;18343;50.152;8.182;2024-02-15T09:53:57;21.52;;;12.23;;
31770;SDS011;18343;50.152;8.182;2024-02-15T09:56:41;19.58;;;10.93;;
31770;SDS011;18343;50.152;8.182;2024-02-15T09:59:26;24.17;;;12.15;;
31770;SDS011;18343;50.152;8.182;2024-02-15T10:02:11;20.30;;;12.25;;
31770;SDS011;18343;50.152;8.182;2024-02-15T10:04:57;18.90;;;11.00;;
31770;SDS011;18343;50.152;8.182;2024-02-15T10:07:42;18.17;;;11.10;;
31770;SDS011;18343;50.152;8.182;2024-02-15T10:10:30;19.60;;;11.75;;
31770;SDS011;18343;50.152;8.182;2024-02-15T10:13:14;23.05;;;11.50;;
31770;SDS011;18343;50.152;8.182;2024-02-15T10:16:15;21.10;;;12.27;;
31770;SDS011;18343;50.152;8.182;2024-02-15T10:19:08;16.58;;;10.65;;
31770;SDS011;18343;50.152;8.182;2024-02-15T10:21:54;23.35;;;11.63;;
31770;SDS011;18343;50.152;8.182;2024-02-15T10:24:49;18.48;;;11.60;;
31770;SDS011;18343;50.152;8.182;2024-02-15T10:27:34;19.52;;;12.15;;
31770;SDS011;18343;50.152;8.182;2024-02-15T10:30:19;19.23;;;11.80;;
31770;SDS011;18343;50.152;8.182;2024-02-15T10:33:06;21.77;;;12.38;;
31770;SDS011;18343;50.152;8.182;2024-02-15T10:35:51;19.02;;;10.45;;
31770;SDS011;18343;50.152;8.182;2024-02-15T10:38:49;16.67;;;11.18;;
31770;SDS011;18343;50.152;8.182;2024-02-15T10:41:34;18.67;;;11.48;;
31770;SDS011;18343;50.152;8.182;2024-02-15T10:44:21;20.13;;;10.50;;
31770;SDS011;18343;50.152;8.182;2024-02-15T10:47:07;18.38;;;10.27;;
31770;SDS011;18343;50.152;8.182;2024-02-15T10:49:52;22.40;;;9.93;;
31770;SDS011;18343;50.152;8.182;2024-02-15T10:52:37;18.73;;;9.50;;
31770;SDS011;18343;50.152;8.182;2024-02-15T10:55:36;13.73;;;8.30;;
31770;SDS011;18343;50.152;8.182;2024-02-15T10:58:24;21.63;;;9.20;;
31770;SDS011;18343;50.152;8.182;2024-02-15T11:01:17;12.90;;;8.32;;
31770;SDS011;18343;50.152;8.182;2024-02-15T11:04:04;15.90;;;8.20;;
31770;SDS011;18343;50.152;8.182;2024-02-15T11:06:52;14.50;;;8.02;;
31770;SDS011;18343;50.152;8.182;2024-02-15T11:09:39;12.68;;;8.63;;
31770;SDS011;18343;50.152;8.182;2024-02-15T11:12:24;12.27;;;8.93;;
31770;SDS011;18343;50.152;8.182;2024-02-15T11:15:09;19.00;;;8.85;;
31770;SDS011;18343;50.152;8.182;2024-02-15T11:17:55;18.65;;;9.85;;
31770;SDS011;18343;50.152;8.182;2024-02-15T11:20:45;19.65;;;9.45;;
31770;SDS011;18343;50.152;8.182;2024-02-15T11:23:31;15.88;;;9.55;;
31770;SDS011;18343;50.152;8.182;2024-02-15T11:32:35;20.52;;;8.88;;
31770;SDS011;18343;50.152;8.182;2024-02-15T11:35:23;14.90;;;8.35;;
31770;SDS011;18343;50.152;8.182;2024-02-15T11:38:08;15.88;;;8.50;;
31770;SDS011;18343;50.152;8.182;2024-02-15T11:40:59;14.52;;;7.50;;
31770;SDS011;18343;50.152;8.182;2024-02-15T11:43:49;12.38;;;5.88;;
31770;SDS011;18343;50.152;8.182;2024-02-15T11:46:35;9.15;;;5.60;;
31770;SDS011;18343;50.152;8.182;2024-02-15T11:49:20;8.88;;;5.35;;
31770;SDS011;18343;50.152;8.182;2024-02-15T11:52:10;22.95;;;6.45;;
31770;SDS011;18343;50.152;8.182;2024-02-15T11:55:03;9.23;;;5.15;;
31770;SDS011;18343;50.152;8.182;2024-02-15T11:57:55;13.85;;;5.88;;
31770;SDS011;18343;50.152;8.182;2024-02-15T12:00:41;12.48;;;6.28;;
31770;SDS011;18343;50.152;8.182;2024-02-15T12:03:25;13.77;;;6.38;;
31770;SDS011;18343;50.152;8.182;2024-02-15T12:06:12;10.93;;;6.28;;
31770;SDS011;18343;50.152;8.182;2024-02-15T12:09:03;10.65;;;5.85;;
31770;SDS011;18343;50.152;8.182;2024-02-15T12:11:47;9.80;;;5.80;;
31770;SDS011;18343;50.152;8.182;2024-02-15T12:17:26;14.05;;;7.00;;
31770;SDS011;18343;50.152;8.182;2024-02-15T12:20:10;9.88;;;6.18;;
31770;SDS011;18343;50.152;8.182;2024-02-15T12:22:55;11.80;;;6.30;;
31770;SDS011;18343;50.152;8.182;2024-02-15T12:25:41;12.00;;;6.25;;
31770;SDS011;18343;50.152;8.182;2024-02-15T12:28:26;13.32;;;6.03;;
31770;SDS011;18343;50.152;8.182;2024-02-15T12:31:11;17.45;;;5.93;;
31770;SDS011;18343;50.152;8.182;2024-02-15T12:33:59;10.65;;;4.68;;
31770;SDS011;18343;50.152;8.182;2024-02-15T12:36:45;16.50;;;5.57;;
31770;SDS011;18343;50.152;8.182;2024-02-15T12:39:29;13.00;;;5.25;;
31770;SDS011;18343;50.152;8.182;2024-02-15T12:42:15;9.82;;;4.70;;
31770;SDS011;18343;50.152;8.182;2024-02-15T12:45:00;13.18;;;4.88;;
31770;SDS011;18343;50.152;8.182;2024-02-15T12:47:44;10.40;;;4.82;;
31770;SDS011;18343;50.152;8.182;2024-02-15T12:50:29;8.82;;;4.60;;
31770;SDS011;18343;50.152;8.182;2024-02-15T12:53:20;13.55;;;4.55;;
31770;SDS011;18343;50.152;8.182;2024-02-15T12:56:05;7.47;;;3.92;;
31770;SDS011;18343;50.152;8.182;2024-02-15T12:58:51;12.82;;;4.25;;
31770;SDS011;18343;50.152;8.182;2024-02-15T13:01:36;11.32;;;3.97;;
31770;SDS011;18343;50.152;8.182;2024-02-15T13:04:23;10.57;;;3.85;;
31770;SDS011;18343;50.152;8.182;2024-02-15T13:07:08;9.15;;;4.30;;
31770;SDS011;18343;50.152;8.182;2024-02-15T13:09:53;8.65;;;3.72;;
31770;SDS011;18343;50.152;8.182;2024-02-15T13:12:37;13.63;;;3.38;;
31770;SDS011;18343;50.152;8.182;2024-02-15T13:15:23;11.23;;;3.55;;
31770;SDS011;18343;50.152;8.182;2024-02-15T13:18:08;9.60;;;3.45;;
31770;SDS011;18343;50.152;8.182;2024-02-15T13:20:53;10.35;;;3.80;;
31770;SDS011;18343;50.152;8.182;2024-02-15T13:23:37;8.45;;;3.58;;
31770;SDS011;18343;50.152;8.182;2024-02-15T13:26:22;7.32;;;3.53;;
31770;SDS011;18343;50.152;8.182;2024-02-15T13:29:06;14.55;;;4.03;;
31770;SDS011;18343;50.152;8.182;2024-02-15T13:31:52;15.65;;;4.15;;
31770;SDS011;18343;50.152;8.182;2024-02-15T13:34:37;10.80;;;4.18;;
31770;SDS011;18343;50.152;8.182;2024-02-15T13:37:21;9.77;;;4.28;;
31770;SDS011;18343;50.152;8.182;2024-02-15T13:40:06;13.55;;;4.97;;
31770;SDS011;18343;50.152;8.182;2024-02-15T13:42:54;10.73;;;3.95;;
31770;SDS011;18343;50.152;8.182;2024-02-15T13:45:39;11.00;;;4.55;;
31770;SDS011;18343;50.152;8.182;2024-02-15T13:48:26;11.65;;;4.88;;
31770;SDS011;18343;50.152;8.182;2024-02-15T13:51:15;9.13;;;4.43;;
31770;SDS011;18343;50.152;8.182;2024-02-15T13:53:59;8.05;;;3.92;;
31770;SDS011;18343;50.152;8.182;2024-02-15T13:56:44;10.05;;;3.85;;
31770;SDS011;18343;50.152;8.182;2024-02-15T13:59:29;9.05;;;3.72;;
31770;SDS011;18343;50.152;8.182;2024-02-15T14:02:13;8.02;;;3.95;;
31770;SDS011;18343;50.152;8.182;2024-02-15T14:04:59;15.02;;;3.83;;
31770;SDS011;18343;50.152;8.182;2024-02-15T14:07:44;10.20;;;3.85;;
31770;SDS011;18343;50.152;8.182;2024-02-15T14:10:29;11.40;;;3.60;;
31770;SDS011;18343;50.152;8.182;2024-02-15T14:13:15;7.72;;;3.13;;
31770;SDS011;18343;50.152;8.182;2024-02-15T14:16:00;13.90;;;3.20;;
31770;SDS011;18343;50.152;8.182;2024-02-15T14:18:44;15.02;;;3.58;;
31770;SDS011;18343;50.152;8.182;2024-02-15T14:21:30;7.35;;;3.17;;
31770;SDS011;18343;50.152;8.182;2024-02-15T14:24:14;14.65;;;3.67;;
31770;SDS011;18343;50.152;8.182;2024-02-15T14:26:59;10.13;;;3.63;;
31770;SDS011;18343;50.152;8.182;2024-02-15T14:29:43;9.57;;;3.50;;
31770;SDS011;18343;50.152;8.182;2024-02-15T14:32:28;7.35;;;3.70;;
31770;SDS011;18343;50.152;8.182;2024-02-15T14:35:13;12.90;;;3.38;;
31770;SDS011;18343;50.152;8.182;2024-02-15T14:37:58;15.52;;;3.53;;
31770;SDS011;18343;50.152;8.182;2024-02-15T14:40:44;11.80;;;3.63;;
31770;SDS011;18343;50.152;8.182;2024-02-15T14:43:30;10.05;;;4.15;;
31770;SDS011;18343;50.152;8.182;2024-02-15T14:46:14;14.10;;;3.95;;
31770;SDS011;18343;50.152;8.182;2024-02-15T14:48:59;10.27;;;3.97;;
31770;SDS011;18343;50.152;8.182;2024-02-15T14:51:44;8.85;;;3.70;;
31770;SDS011;18343;50.152;8.182;2024-02-15T14:54:30;10.68;;;3.85;;
31770;SDS011;18343;50.152;8.182;2024-02-15T14:57:14;9.65;;;3.35;;
31770;SDS011;18343;50.152;8.182;2024-02-15T14:59:59;11.27;;;3.55;;
31770;SDS011;18343;50.152;8.182;2024-02-15T15:02:44;11.13;;;3.58;;
31770;SDS011;18343;50.152;8.182;2024-02-15T15:05:28;11.20;;;3.25;;
31770;SDS011;18343;50.152;8.182;2024-02-15T15:08:13;11.95;;;3.92;;
31770;SDS011;18343;50.152;8.182;2024-02-15T15:10:59;7.82;;;3.13;;
31770;SDS011;18343;50.152;8.182;2024-02-15T15:13:43;8.25;;;2.80;;
31770;SDS011;18343;50.152;8.182;2024-02-15T15:16:28;8.88;;;2.78;;
31770;SDS011;18343;50.152;8.182;2024-02-15T15:19:12;11.57;;;2.92;;
31770;SDS011;18343;50.152;8.182;2024-02-15T15:21:57;10.70;;;3.20;;
31770;SDS011;18343;50.152;8.182;2024-02-15T15:24:41;8.35;;;2.83;;
31770;SDS011;18343;50.152;8.182;2024-02-15T15:27:28;8.30;;;3.42;;
31770;SDS011;18343;50.152;8.182;2024-02-15T15:30:13;9.23;;;3.08;;
31770;SDS011;18343;50.152;8.182;2024-02-15T15:32:57;9.23;;;3.55;;
31770;SDS011;18343;50.152;8.182;2024-02-15T15:35:42;11.50;;;4.15;;
31770;SDS011;18343;50.152;8.182;2024-02-15T15:38:27;8.07;;;2.33;;
31770;SDS011;18343;50.152;8.182;2024-02-15T15:41:11;14.77;;;5.20;;
31770;SDS011;18343;50.152;8.182;2024-02-15T15:43:57;12.90;;;2.72;;
31770;SDS011;18343;50.152;8.182;2024-02-15T15:46:42;7.40;;;2.65;;
31770;SDS011;18343;50.152;8.182;2024-02-15T15:49:26;5.93;;;2.65;;
31770;SDS011;18343;50.152;8.182;2024-02-15T15:52:11;8.13;;;2.55;;
31770;SDS011;18343;50.152;8.182;2024-02-15T15:54:56;8.05;;;3.25;;
31770;SDS011;18343;50.152;8.182;2024-02-15T15:57:41;14.85;;;5.65;;
31770;SDS011;18343;50.152;8.182;2024-02-15T16:00:27;5.90;;;3.08;;
31770;SDS011;18343;50.152;8.182;2024-02-15T16:03:15;11.48;;;3.50;;
31770;SDS011;18343;50.152;8.182;2024-02-15T16:05:59;9.73;;;3.17;;
31770;SDS011;18343;50.152;8.182;2024-02-15T16:08:44;7.55;;;2.30;;
31770;SDS011;18343;50.152;8.182;2024-02-15T16:11:28;8.85;;;3.25;;
31770;SDS011;18343;50.152;8.182;2024-02-15T16:14:13;4.63;;;2.47;;
31770;SDS011;18343;50.152;8.182;2024-02-15T16:16:58;8.13;;;2.63;;
31770;SDS011;18343;50.152;8.182;2024-02-15T16:19:43;4.43;;;1.88;;
31770;SDS011;18343;50.152;8.182;2024-02-15T16:22:28;4.38;;;2.35;;
31770;SDS011;18343;50.152;8.182;2024-02-15T16:25:13;9.82;;;3.05;;
31770;SDS011;18343;50.152;8.182;2024-02-15T16:27:57;7.10;;;2.50;;
31770;SDS011;18343;50.152;8.182;2024-02-15T16:30:42;9.02;;;2.70;;